Terminal Aerodrome Forecast
Issued by NWS

Home | Current Version | Previous Version | Text Only | Print | Product List | Glossary On
Versions: 1 2 3 4 5 6 7 8 9 10 11 12 13 14 15 16 17 18 19 20 21 22 23 24 25 26 27 28
000
FTUS44 KHGX 221906 AAA
TAFIAH
TAF AMD
KIAH 221906Z 2219/2324 26006KT P6SM VCTS FEW045CB
      TEMPO 2219/2222 VRB15KT TSRA BKN025CB
     FM222200 17005KT P6SM VCSH SCT050
     FM230100 19004KT P6SM FEW035
     FM231200 21003KT P6SM SCT020
     FM231600 22007KT P6SM VCTS SCT040CB=

USA.gov is the U.S. government's official web portal to all federal, state and local government web resources and services.